Weather at Sarasota Bradenton International Airport

Public forecast

Using degrees Fahrenheit for public forecast. Weather courtesy of forecast.io.

Current aviation weather report (METAR) for Sarasota Bradenton International Airport

Retrieved 2021/05/17 21:53 UTC (8 minutes ago):

KSRQ 172153Z 10008KT 10SM SCT070 30/13 A3003 RMK AO2 SLP166 T03000128

Aviation forecast (TAF) for Sarasota Bradenton International Airport

Retrieved 2021/05/17 18:42 UTC (3 hours ago):

TAF KSRQ 171739Z 1718/1818 07011KT P6SM FEW250 FM172000 30012KT P6SM FEW060 SCT250 FM180100 09011KT P6SM FEW100 SCT250 FM180700 07007KT P6SM FEW250 FM181400 10012KT P6SM FEW050 SCT250